createdAt,value
2023-02-05T00:00:29.383Z,-2.76
2023-02-05T00:03:54.384Z,-2.76
2023-02-05T00:06:57.905Z,-2.78
2023-02-05T00:10:01.697Z,-2.72
2023-02-05T00:13:09.301Z,-2.25
2023-02-05T00:16:14.714Z,-1.94
2023-02-05T00:19:19.584Z,-1.54
2023-02-05T00:22:22.548Z,-1.23
2023-02-05T00:25:26.946Z,-1.18
2023-02-05T00:28:33.881Z,-1.06
2023-02-05T00:31:37.671Z,-1.07
2023-02-05T00:34:44.727Z,-0.99
2023-02-05T00:37:47.824Z,-1.04
2023-02-05T00:40:51.454Z,-1.11
2023-02-05T00:43:54.691Z,-0.97
2023-02-05T00:46:57.620Z,-0.78
2023-02-05T00:50:01.179Z,-0.66
2023-02-05T00:53:04.227Z,-0.45
2023-02-05T00:56:08.834Z,0.03
2023-02-05T00:59:12.185Z,0.41
2023-02-05T01:02:15.090Z,0.99
2023-02-05T01:05:20.167Z,2.36
2023-02-05T01:08:23.728Z,2.51
2023-02-05T01:11:28.085Z,0.71
2023-02-05T01:14:31.188Z,0.32
2023-02-05T01:17:34.954Z,1.05
2023-02-05T01:20:39.824Z,1.63
2023-02-05T01:23:44.459Z,2.07
2023-02-05T01:26:50.650Z,2.19
2023-02-05T01:29:54.794Z,2.17
2023-02-05T01:33:02.701Z,2.33
2023-02-05T01:36:28.660Z,2.43
2023-02-05T01:39:33.077Z,2.47
2023-02-05T01:42:36.253Z,2.58
2023-02-05T01:45:50.961Z,2.41
2023-02-05T01:48:58.754Z,2.40
2023-02-05T01:52:10.615Z,2.21
2023-02-05T01:55:18.000Z,2.16
2023-02-05T01:58:23.273Z,2.18
2023-02-05T02:01:27.696Z,1.95
2023-02-05T02:04:51.277Z,1.85
2023-02-05T02:08:03.105Z,1.79
2023-02-05T02:11:09.692Z,1.70
2023-02-05T02:14:14.137Z,2.14
2023-02-05T02:17:21.818Z,3.61
2023-02-05T02:20:45.041Z,2.45
2023-02-05T02:24:24.984Z,0.96
2023-02-05T02:28:11.560Z,0.76
2023-02-05T02:31:44.551Z,0.74
2023-02-05T02:34:53.438Z,0.78
2023-02-05T02:38:26.531Z,2.11
2023-02-05T02:41:52.986Z,2.42
2023-02-05T02:45:04.203Z,2.41
2023-02-05T02:48:15.996Z,2.10
2023-02-05T02:51:21.692Z,1.78
2023-02-05T02:54:26.668Z,1.66
2023-02-05T02:57:30.464Z,1.32
2023-02-05T03:00:34.743Z,0.88
2023-02-05T03:03:42.902Z,0.60
2023-02-05T03:06:54.262Z,0.60
2023-02-05T03:10:00.694Z,0.39
2023-02-05T03:13:04.058Z,0.37
2023-02-05T03:16:07.939Z,0.47
2023-02-05T03:19:10.981Z,0.39
2023-02-05T03:22:14.730Z,0.09
2023-02-05T03:25:21.407Z,-0.30
2023-02-05T03:28:24.428Z,-0.22
2023-02-05T03:31:57.189Z,-0.26
2023-02-05T03:35:20.845Z,-0.27
2023-02-05T03:39:03.415Z,-0.34
2023-02-05T03:42:31.526Z,-0.42
2023-02-05T03:46:23.988Z,-0.27
2023-02-05T03:50:05.691Z,-0.09
2023-02-05T03:53:31.596Z,-0.43
2023-02-05T03:56:40.043Z,-0.39
2023-02-05T03:59:44.770Z,-0.44
2023-02-05T04:02:48.322Z,-0.50
2023-02-05T04:05:51.717Z,-0.89
2023-02-05T04:08:55.300Z,-0.90
2023-02-05T04:11:58.620Z,-1.01
2023-02-05T04:15:03.493Z,-1.26
2023-02-05T04:18:08.085Z,-1.25
2023-02-05T04:21:10.811Z,-1.30
2023-02-05T04:24:13.845Z,-1.37
2023-02-05T04:27:19.546Z,-1.12
2023-02-05T04:30:23.145Z,-0.98
2023-02-05T04:33:26.557Z,-0.99
2023-02-05T04:36:50.211Z,-1.11
2023-02-05T04:39:53.880Z,-1.45
2023-02-05T04:42:57.391Z,-1.78
2023-02-05T04:46:37.020Z,-1.93
2023-02-05T04:49:42.027Z,-2.34
2023-02-05T04:52:52.944Z,-2.57
2023-02-05T04:56:11.837Z,-2.70
2023-02-05T04:59:38.397Z,-2.87
2023-02-05T05:02:46.870Z,-3.24
2023-02-05T05:06:01.410Z,-3.47
2023-02-05T05:09:06.788Z,-3.63
2023-02-05T05:12:31.852Z,-3.77
2023-02-05T05:15:54.927Z,-3.91
2023-02-05T05:19:19.735Z,-4.08
2023-02-05T05:22:25.531Z,-4.03
2023-02-05T05:25:28.427Z,-3.75
2023-02-05T05:28:35.019Z,-3.84
2023-02-05T05:31:39.675Z,-3.88
2023-02-05T05:34:46.658Z,-3.83
2023-02-05T05:37:51.351Z,-3.50
2023-02-05T05:41:13.022Z,-3.14
2023-02-05T05:44:16.418Z,-2.76
2023-02-05T05:47:19.954Z,-2.76
2023-02-05T05:50:27.763Z,-2.77
2023-02-05T05:53:34.357Z,-2.90
2023-02-05T05:57:00.314Z,-2.96
2023-02-05T06:00:10.074Z,-3.04
2023-02-05T06:03:15.867Z,-3.11
2023-02-05T06:06:19.320Z,-3.17
2023-02-05T06:09:26.035Z,-3.14
2023-02-05T06:12:29.304Z,-3.17
2023-02-05T06:15:52.228Z,-3.22
2023-02-05T06:19:07.787Z,-3.31
2023-02-05T06:22:31.820Z,-3.24
2023-02-05T06:25:53.210Z,-3.36
2023-02-05T06:29:20.571Z,-3.62
2023-02-05T06:32:39.114Z,-3.71
2023-02-05T06:36:02.281Z,-3.77
2023-02-05T06:39:36.170Z,-3.69
2023-02-05T06:43:08.193Z,-3.63
2023-02-05T06:46:48.468Z,-3.57
2023-02-05T06:50:30.277Z,-3.33
2023-02-05T06:54:02.617Z,-2.08
2023-02-05T06:57:08.121Z,-0.67
2023-02-05T07:00:22.643Z,0.17
2023-02-05T07:03:34.034Z,0.18
2023-02-05T07:06:46.278Z,-0.12
2023-02-05T07:09:49.775Z,-0.31
2023-02-05T07:12:53.504Z,0.03
2023-02-05T07:16:16.940Z,0.31
2023-02-05T07:19:29.935Z,0.27
2023-02-05T07:22:38.867Z,0.13
2023-02-05T07:26:14.282Z,-0.12
2023-02-05T07:29:26.180Z,-0.10
2023-02-05T07:32:37.301Z,0.04
2023-02-05T07:36:01.006Z,0.25
2023-02-05T07:39:25.242Z,0.27
2023-02-05T07:42:30.099Z,0.30
2023-02-05T07:45:59.801Z,0.29
2023-02-05T07:49:23.328Z,0.55
2023-02-05T07:52:29.785Z,0.50
2023-02-05T07:55:35.718Z,0.50
2023-02-05T07:58:56.251Z,0.95
2023-02-05T08:02:01.131Z,0.81
2023-02-05T08:05:14.112Z,1.10
2023-02-05T08:08:28.451Z,1.32
2023-02-05T08:11:52.840Z,1.29
2023-02-05T08:15:01.044Z,1.34
2023-02-05T08:18:24.670Z,1.87
2023-02-05T08:21:40.870Z,2.25
2023-02-05T08:24:52.808Z,2.39
2023-02-05T08:27:56.275Z,1.45
2023-02-05T08:31:00.631Z,0.95
2023-02-05T08:34:06.848Z,1.35
2023-02-05T08:37:10.511Z,1.49
2023-02-05T08:40:22.862Z,1.41
2023-02-05T08:43:34.327Z,1.41
2023-02-05T08:46:50.528Z,1.50
2023-02-05T08:49:55.109Z,2.03
2023-02-05T08:53:06.063Z,1.54
2023-02-05T08:56:14.533Z,0.51
2023-02-05T08:59:33.199Z,0.07
2023-02-05T09:02:38.956Z,-0.14
2023-02-05T09:05:55.040Z,-0.33
2023-02-05T09:09:14.573Z,-0.44
2023-02-05T09:12:34.932Z,-0.44
2023-02-05T09:15:54.957Z,-0.43
2023-02-05T09:19:01.020Z,-0.45
2023-02-05T09:22:08.340Z,-0.28
2023-02-05T09:25:19.287Z,0.26
2023-02-05T09:28:23.004Z,0.77
2023-02-05T09:31:31.436Z,1.00
2023-02-05T09:34:37.751Z,1.03
2023-02-05T09:37:42.003Z,1.05
2023-02-05T09:41:34.413Z,0.98
2023-02-05T09:45:18.795Z,0.84
2023-02-05T09:48:57.687Z,0.70
2023-02-05T09:52:12.322Z,0.46
2023-02-05T09:55:29.929Z,0.13
2023-02-05T09:58:50.124Z,-0.29
2023-02-05T10:02:48.126Z,-0.73
2023-02-05T10:06:24.960Z,-1.02
2023-02-05T10:10:28.578Z,-1.16
2023-02-05T10:13:55.676Z,-1.00
2023-02-05T10:17:52.833Z,-0.25
2023-02-05T10:21:33.910Z,0.65
2023-02-05T10:25:08.205Z,0.81
2023-02-05T10:28:53.703Z,0.47
2023-02-05T10:32:27.232Z,-0.02
2023-02-05T10:36:24.669Z,-0.57
2023-02-05T10:39:49.520Z,-0.81
2023-02-05T10:43:27.189Z,-0.82
2023-02-05T10:46:40.882Z,-0.68
2023-02-05T10:49:58.838Z,-0.66
2023-02-05T10:53:38.451Z,-0.65
2023-02-05T10:56:48.002Z,-0.65
2023-02-05T11:00:39.424Z,-0.64
2023-02-05T11:04:21.005Z,-0.57
2023-02-05T11:08:32.351Z,-0.60
2023-02-05T11:12:00.588Z,-0.77
2023-02-05T11:15:06.743Z,-0.98
2023-02-05T11:18:50.152Z,-1.16
2023-02-05T11:22:19.175Z,-1.32
2023-02-05T11:25:59.396Z,-1.54
2023-02-05T11:29:50.951Z,-1.80
2023-02-05T11:33:21.168Z,-2.00
2023-02-05T11:36:52.572Z,-2.20
2023-02-05T11:40:20.509Z,-2.25
2023-02-05T11:44:30.433Z,-2.23
2023-02-05T11:48:05.712Z,-2.15
2023-02-05T11:52:02.985Z,-1.92
2023-02-05T11:55:40.002Z,-1.75
2023-02-05T11:58:58.405Z,-1.61
2023-02-05T12:02:57.099Z,-1.45
2023-02-05T12:06:29.038Z,-1.30
2023-02-05T12:09:39.371Z,-1.22
2023-02-05T12:13:40.439Z,-1.14
2023-02-05T12:17:24.492Z,-1.00
2023-02-05T12:21:12.278Z,-0.91
2023-02-05T12:24:57.311Z,-0.89
2023-02-05T12:28:52.590Z,-0.95
2023-02-05T12:32:37.304Z,-0.88
2023-02-05T12:36:56.769Z,-0.76
2023-02-05T12:40:22.642Z,-0.75
2023-02-05T12:44:01.603Z,-0.89
2023-02-05T12:47:46.070Z,-1.14
2023-02-05T12:51:36.831Z,-1.43
2023-02-05T12:55:22.684Z,-1.67
2023-02-05T12:58:48.669Z,-1.87
2023-02-05T13:02:14.146Z,-2.01
2023-02-05T13:05:43.240Z,-1.61
2023-02-05T13:09:10.009Z,-0.17
2023-02-05T13:12:27.015Z,-0.29
2023-02-05T13:15:45.707Z,-0.94
2023-02-05T13:19:26.207Z,-1.43
2023-02-05T13:23:23.669Z,-1.75
2023-02-05T13:27:13.939Z,-1.61
2023-02-05T13:30:35.224Z,-1.24
2023-02-05T13:33:41.925Z,-1.46
2023-02-05T13:37:21.433Z,-1.73
2023-02-05T13:41:11.878Z,-2.05
2023-02-05T13:44:41.246Z,-2.35
2023-02-05T13:48:31.868Z,-2.48
2023-02-05T13:52:13.621Z,-1.21
2023-02-05T13:55:46.551Z,1.04
2023-02-05T13:59:23.698Z,0.17
2023-02-05T14:02:56.386Z,-0.64
2023-02-05T14:06:21.962Z,-1.24
2023-02-05T14:09:57.106Z,-1.92
2023-02-05T14:13:42.318Z,-2.30
2023-02-05T14:17:05.408Z,0.14
2023-02-05T14:20:39.779Z,1.09
2023-02-05T14:24:13.846Z,-0.34
2023-02-05T14:27:51.611Z,-1.20
2023-02-05T14:31:33.686Z,-1.73
2023-02-05T14:34:49.391Z,-2.05
2023-02-05T14:38:01.088Z,-1.96
2023-02-05T14:41:24.343Z,-1.71
2023-02-05T14:44:57.681Z,-1.66
2023-02-05T14:48:49.231Z,-1.29
2023-02-05T14:52:34.093Z,1.77
2023-02-05T14:55:52.699Z,2.82
2023-02-05T14:59:06.222Z,1.10
2023-02-05T15:03:11.170Z,-0.17
2023-02-05T15:06:41.554Z,-1.23
2023-02-05T15:10:12.479Z,-1.84
2023-02-05T15:13:19.495Z,-2.16
2023-02-05T15:16:41.346Z,-2.27
2023-02-05T15:20:24.081Z,-2.51
2023-02-05T15:24:20.470Z,-2.85
2023-02-05T15:28:05.394Z,-3.13
2023-02-05T15:31:33.846Z,-3.36
2023-02-05T15:34:56.265Z,-3.57
2023-02-05T15:38:09.916Z,-3.54
2023-02-05T15:41:39.644Z,-3.43
2023-02-05T15:44:45.375Z,-3.41
2023-02-05T15:48:27.487Z,-3.55
2023-02-05T15:51:44.148Z,-3.29
2023-02-05T15:54:59.834Z,-1.83
2023-02-05T15:58:07.346Z,-0.17
2023-02-05T16:01:11.413Z,0.62
2023-02-05T16:04:53.088Z,0.82
2023-02-05T16:07:59.946Z,0.51
2023-02-05T16:11:07.209Z,-1.00
2023-02-05T16:14:20.269Z,-2.13
2023-02-05T16:18:00.592Z,-2.61
2023-02-05T16:21:20.947Z,-2.63
2023-02-05T16:24:37.648Z,-2.67
2023-02-05T16:28:25.829Z,-0.89
2023-02-05T16:31:40.586Z,0.63
2023-02-05T16:35:05.365Z,-0.62
2023-02-05T16:38:22.337Z,-2.37
2023-02-05T16:41:32.669Z,-3.41
2023-02-05T16:44:39.753Z,-4.17
2023-02-05T16:47:43.270Z,-4.44
2023-02-05T16:51:04.032Z,-3.12
2023-02-05T16:54:32.008Z,-1.12
2023-02-05T16:57:44.813Z,-1.03
2023-02-05T17:01:43.333Z,-2.48
2023-02-05T17:05:09.349Z,-3.91
2023-02-05T17:08:34.659Z,-3.60
2023-02-05T17:12:19.143Z,-2.49
2023-02-05T17:15:44.971Z,-2.08
2023-02-05T17:18:59.828Z,-1.53
2023-02-05T17:22:35.921Z,-0.66
2023-02-05T17:26:02.748Z,-0.54
2023-02-05T17:29:12.419Z,-2.29
2023-02-05T17:32:37.222Z,-3.55
2023-02-05T17:36:00.670Z,-4.47
2023-02-05T17:39:06.155Z,-5.02
2023-02-05T17:42:40.948Z,-5.41
2023-02-05T17:46:05.857Z,-5.81
2023-02-05T17:49:11.795Z,-6.06
2023-02-05T17:52:22.126Z,-6.16
2023-02-05T17:55:33.621Z,-4.99
2023-02-05T17:58:46.832Z,-2.81
2023-02-05T18:02:07.425Z,-1.37
2023-02-05T18:05:14.273Z,-0.88
2023-02-05T18:08:36.717Z,-0.38
2023-02-05T18:11:43.288Z,0.86
2023-02-05T18:14:50.710Z,1.85
2023-02-05T18:17:54.217Z,2.24
2023-02-05T18:21:00.520Z,2.54
2023-02-05T18:24:24.104Z,2.87
2023-02-05T18:27:53.147Z,3.25
2023-02-05T18:31:03.178Z,3.55
2023-02-05T18:34:28.346Z,4.13
2023-02-05T18:37:38.461Z,4.30
2023-02-05T18:40:41.810Z,4.45
2023-02-05T18:44:05.837Z,4.57
2023-02-05T18:47:16.213Z,4.34
2023-02-05T18:50:21.134Z,3.71
2023-02-05T18:53:29.965Z,3.05
2023-02-05T18:56:55.199Z,2.49
2023-02-05T19:00:06.465Z,2.31
2023-02-05T19:03:33.247Z,2.01
2023-02-05T19:06:56.343Z,1.79
2023-02-05T19:10:01.482Z,1.86
2023-02-05T19:13:20.706Z,2.07
2023-02-05T19:16:31.203Z,2.45
2023-02-05T19:19:42.673Z,2.56
2023-02-05T19:22:46.267Z,2.51
2023-02-05T19:25:49.749Z,2.45
2023-02-05T19:28:58.298Z,2.52
2023-02-05T19:32:09.995Z,2.68
2023-02-05T19:35:18.376Z,2.79
2023-02-05T19:38:41.327Z,3.45
2023-02-05T19:42:05.334Z,3.72
2023-02-05T19:45:30.345Z,3.50
2023-02-05T19:48:36.325Z,3.35
2023-02-05T19:52:04.298Z,3.04
2023-02-05T19:55:29.805Z,2.77
2023-02-05T19:58:54.468Z,2.69
2023-02-05T20:02:00.284Z,2.70
2023-02-05T20:05:11.677Z,2.68
2023-02-05T20:08:15.039Z,2.52
2023-02-05T20:11:34.794Z,2.38
2023-02-05T20:15:00.319Z,2.29
2023-02-05T20:18:07.265Z,2.18
2023-02-05T20:21:27.244Z,1.92
2023-02-05T20:24:46.482Z,1.82
2023-02-05T20:27:51.972Z,1.49
2023-02-05T20:31:16.030Z,1.24
2023-02-05T20:34:42.071Z,1.36
2023-02-05T20:37:45.151Z,1.48
2023-02-05T20:40:48.631Z,1.33
2023-02-05T20:44:08.815Z,1.12
2023-02-05T20:47:19.503Z,1.07
2023-02-05T20:50:30.990Z,1.20
2023-02-05T20:53:51.328Z,1.20
2023-02-05T20:57:15.068Z,1.07
2023-02-05T21:00:29.000Z,1.14
2023-02-05T21:03:54.426Z,0.97
2023-02-05T21:07:25.692Z,0.57
2023-02-05T21:10:35.698Z,0.07
2023-02-05T21:13:59.761Z,-0.30
2023-02-05T21:17:11.496Z,-0.64
2023-02-05T21:20:16.728Z,-0.84
2023-02-05T21:23:45.595Z,-1.25
2023-02-05T21:27:06.320Z,-1.86
2023-02-05T21:30:17.491Z,-2.03
2023-02-05T21:33:37.371Z,-2.27
2023-02-05T21:36:49.602Z,-2.46
2023-02-05T21:40:14.036Z,-2.75
2023-02-05T21:43:32.892Z,-2.98
2023-02-05T21:46:36.912Z,-3.17
2023-02-05T21:49:47.969Z,-3.26
2023-02-05T21:52:54.280Z,-3.33
2023-02-05T21:56:04.544Z,-3.58
2023-02-05T21:59:27.429Z,-3.87
2023-02-05T22:02:32.887Z,-3.92
2023-02-05T22:05:37.402Z,-3.85
2023-02-05T22:08:49.150Z,-3.95
2023-02-05T22:12:13.559Z,-4.01
2023-02-05T22:15:16.773Z,-4.07
2023-02-05T22:18:29.616Z,-4.13
2023-02-05T22:21:52.017Z,-4.10
2023-02-05T22:24:55.311Z,-4.10
2023-02-05T22:27:59.818Z,-3.99
2023-02-05T22:31:23.566Z,-3.92
2023-02-05T22:34:35.869Z,-4.02
2023-02-05T22:38:06.864Z,-3.92
2023-02-05T22:41:57.660Z,-3.84
2023-02-05T22:45:18.222Z,-3.70
2023-02-05T22:48:42.572Z,-3.61
2023-02-05T22:51:48.565Z,-3.59
2023-02-05T22:55:11.227Z,-3.77
2023-02-05T22:58:14.327Z,-3.87
2023-02-05T23:01:24.700Z,-3.89
2023-02-05T23:04:48.236Z,-3.94
2023-02-05T23:08:13.222Z,-4.01
2023-02-05T23:11:36.281Z,-3.97
2023-02-05T23:14:56.672Z,-4.00
2023-02-05T23:18:03.069Z,-3.65
2023-02-05T23:21:17.614Z,-3.54
2023-02-05T23:24:26.407Z,-3.53
2023-02-05T23:27:50.089Z,-3.51
2023-02-05T23:30:53.192Z,-3.54
2023-02-05T23:33:57.147Z,-3.37
2023-02-05T23:37:05.590Z,-3.10
2023-02-05T23:40:18.215Z,-2.91
2023-02-05T23:43:23.591Z,-2.84
2023-02-05T23:46:31.505Z,-2.79
2023-02-05T23:49:37.246Z,-2.82
2023-02-05T23:52:48.365Z,-2.81
2023-02-05T23:55:53.828Z,-2.87
2023-02-05T23:59:07.154Z,-3.03
